sensor_id;sensor_type;location;lat;lon;timestamp;P1;durP1;ratioP1;P2;durP2;ratioP2
26536;SDS011;14204;51.262;5.488;2023-10-19T00:00:39;34.13;;;21.40;;
26536;SDS011;14204;51.262;5.488;2023-10-19T00:03:10;34.72;;;21.77;;
26536;SDS011;14204;51.262;5.488;2023-10-19T00:05:37;32.95;;;22.30;;
26536;SDS011;14204;51.262;5.488;2023-10-19T00:08:04;32.72;;;21.58;;
26536;SDS011;14204;51.262;5.488;2023-10-19T00:10:44;30.55;;;21.90;;
26536;SDS011;14204;51.262;5.488;2023-10-19T00:13:13;36.05;;;23.33;;
26536;SDS011;14204;51.262;5.488;2023-10-19T00:15:41;39.42;;;25.08;;
26536;SDS011;14204;51.262;5.488;2023-10-19T00:18:16;35.35;;;22.45;;
26536;SDS011;14204;51.262;5.488;2023-10-19T00:20:43;38.35;;;21.83;;
26536;SDS011;14204;51.262;5.488;2023-10-19T00:23:13;42.22;;;22.90;;
26536;SDS011;14204;51.262;5.488;2023-10-19T00:25:41;45.55;;;22.45;;
26536;SDS011;14204;51.262;5.488;2023-10-19T00:28:07;35.17;;;22.35;;
26536;SDS011;14204;51.262;5.488;2023-10-19T00:30:33;44.00;;;22.52;;
26536;SDS011;14204;51.262;5.488;2023-10-19T00:33:02;45.90;;;25.88;;
26536;SDS011;14204;51.262;5.488;2023-10-19T00:35:41;35.47;;;23.45;;
26536;SDS011;14204;51.262;5.488;2023-10-19T00:38:15;38.90;;;23.08;;
26536;SDS011;14204;51.262;5.488;2023-10-19T00:41:04;49.95;;;27.77;;
26536;SDS011;14204;51.262;5.488;2023-10-19T00:43:32;40.90;;;23.70;;
26536;SDS011;14204;51.262;5.488;2023-10-19T00:46:18;44.38;;;23.38;;
26536;SDS011;14204;51.262;5.488;2023-10-19T00:48:45;50.90;;;24.90;;
26536;SDS011;14204;51.262;5.488;2023-10-19T00:51:12;40.05;;;23.23;;
26536;SDS011;14204;51.262;5.488;2023-10-19T00:56:41;26.98;;;19.65;;
26536;SDS011;14204;51.262;5.488;2023-10-19T00:59:17;34.55;;;22.08;;
26536;SDS011;14204;51.262;5.488;2023-10-19T01:01:47;38.55;;;22.27;;
26536;SDS011;14204;51.262;5.488;2023-10-19T01:04:18;31.03;;;19.63;;
26536;SDS011;14204;51.262;5.488;2023-10-19T01:06:48;29.67;;;18.30;;
26536;SDS011;14204;51.262;5.488;2023-10-19T01:09:37;14.32;;;10.02;;
26536;SDS011;14204;51.262;5.488;2023-10-19T01:12:04;14.05;;;10.32;;
26536;SDS011;14204;51.262;5.488;2023-10-19T01:17:37;15.73;;;11.18;;
26536;SDS011;14204;51.262;5.488;2023-10-19T01:20:07;18.38;;;10.23;;
26536;SDS011;14204;51.262;5.488;2023-10-19T01:28:09;17.48;;;9.88;;
26536;SDS011;14204;51.262;5.488;2023-10-19T01:30:36;33.13;;;15.95;;
26536;SDS011;14204;51.262;5.488;2023-10-19T01:33:03;37.45;;;19.30;;
26536;SDS011;14204;51.262;5.488;2023-10-19T01:35:33;35.72;;;20.80;;
26536;SDS011;14204;51.262;5.488;2023-10-19T01:38:17;31.65;;;17.75;;
26536;SDS011;14204;51.262;5.488;2023-10-19T01:40:43;23.92;;;12.73;;
26536;SDS011;14204;51.262;5.488;2023-10-19T01:43:11;20.20;;;12.88;;
26536;SDS011;14204;51.262;5.488;2023-10-19T01:45:47;22.02;;;13.43;;
26536;SDS011;14204;51.262;5.488;2023-10-19T01:48:13;26.10;;;15.93;;
26536;SDS011;14204;51.262;5.488;2023-10-19T01:50:40;52.88;;;22.17;;
26536;SDS011;14204;51.262;5.488;2023-10-19T01:53:06;29.80;;;16.05;;
26536;SDS011;14204;51.262;5.488;2023-10-19T01:55:42;25.88;;;13.25;;
26536;SDS011;14204;51.262;5.488;2023-10-19T01:58:09;14.07;;;9.98;;
26536;SDS011;14204;51.262;5.488;2023-10-19T02:00:35;12.50;;;7.95;;
26536;SDS011;14204;51.262;5.488;2023-10-19T02:03:08;14.27;;;8.48;;
26536;SDS011;14204;51.262;5.488;2023-10-19T02:05:34;14.27;;;8.48;;
26536;SDS011;14204;51.262;5.488;2023-10-19T02:08:07;11.25;;;6.88;;
26536;SDS011;14204;51.262;5.488;2023-10-19T02:10:33;9.13;;;6.15;;
26536;SDS011;14204;51.262;5.488;2023-10-19T02:13:01;10.80;;;6.75;;
26536;SDS011;14204;51.262;5.488;2023-10-19T02:15:32;10.73;;;6.78;;
26536;SDS011;14204;51.262;5.488;2023-10-19T02:18:02;8.75;;;6.63;;
26536;SDS011;14204;51.262;5.488;2023-10-19T02:20:28;10.55;;;6.40;;
26536;SDS011;14204;51.262;5.488;2023-10-19T02:22:55;12.88;;;6.88;;
26536;SDS011;14204;51.262;5.488;2023-10-19T02:25:22;11.43;;;8.00;;
26536;SDS011;14204;51.262;5.488;2023-10-19T02:27:50;8.68;;;7.05;;
26536;SDS011;14204;51.262;5.488;2023-10-19T02:30:17;11.82;;;6.85;;
26536;SDS011;14204;51.262;5.488;2023-10-19T02:32:43;8.13;;;5.47;;
26536;SDS011;14204;51.262;5.488;2023-10-19T02:35:08;9.75;;;5.93;;
26536;SDS011;14204;51.262;5.488;2023-10-19T02:37:34;9.85;;;5.70;;
26536;SDS011;14204;51.262;5.488;2023-10-19T02:40:00;9.25;;;5.60;;
26536;SDS011;14204;51.262;5.488;2023-10-19T02:42:26;8.52;;;4.90;;
26536;SDS011;14204;51.262;5.488;2023-10-19T02:44:52;9.75;;;5.03;;
26536;SDS011;14204;51.262;5.488;2023-10-19T02:47:17;9.63;;;4.80;;
26536;SDS011;14204;51.262;5.488;2023-10-19T02:49:43;9.38;;;5.13;;
26536;SDS011;14204;51.262;5.488;2023-10-19T02:52:16;13.43;;;4.93;;
26536;SDS011;14204;51.262;5.488;2023-10-19T02:54:41;16.15;;;5.00;;
26536;SDS011;14204;51.262;5.488;2023-10-19T02:57:07;9.45;;;3.90;;
26536;SDS011;14204;51.262;5.488;2023-10-19T02:59:34;12.00;;;4.00;;
26536;SDS011;14204;51.262;5.488;2023-10-19T03:02:01;13.10;;;4.80;;
26536;SDS011;14204;51.262;5.488;2023-10-19T03:04:32;10.85;;;4.50;;
26536;SDS011;14204;51.262;5.488;2023-10-19T03:07:02;8.57;;;3.95;;
26536;SDS011;14204;51.262;5.488;2023-10-19T03:09:32;6.95;;;3.55;;
26536;SDS011;14204;51.262;5.488;2023-10-19T03:12:01;8.25;;;3.22;;
26536;SDS011;14204;51.262;5.488;2023-10-19T03:14:29;13.88;;;3.45;;
26536;SDS011;14204;51.262;5.488;2023-10-19T03:16:56;9.13;;;3.40;;
26536;SDS011;14204;51.262;5.488;2023-10-19T03:19:24;8.98;;;3.00;;
26536;SDS011;14204;51.262;5.488;2023-10-19T03:21:50;7.70;;;3.45;;
26536;SDS011;14204;51.262;5.488;2023-10-19T03:24:17;10.35;;;3.08;;
26536;SDS011;14204;51.262;5.488;2023-10-19T03:27:02;14.93;;;3.05;;
26536;SDS011;14204;51.262;5.488;2023-10-19T03:29:37;8.15;;;2.90;;
26536;SDS011;14204;51.262;5.488;2023-10-19T03:32:11;10.57;;;2.25;;
26536;SDS011;14204;51.262;5.488;2023-10-19T03:34:37;8.20;;;2.67;;
26536;SDS011;14204;51.262;5.488;2023-10-19T03:37:03;7.03;;;2.90;;
26536;SDS011;14204;51.262;5.488;2023-10-19T03:39:37;9.07;;;3.10;;
26536;SDS011;14204;51.262;5.488;2023-10-19T03:42:06;17.13;;;3.58;;
26536;SDS011;14204;51.262;5.488;2023-10-19T03:44:33;8.23;;;2.95;;
26536;SDS011;14204;51.262;5.488;2023-10-19T03:47:14;11.82;;;3.08;;
26536;SDS011;14204;51.262;5.488;2023-10-19T03:49:50;10.73;;;2.85;;
26536;SDS011;14204;51.262;5.488;2023-10-19T03:52:16;5.70;;;2.42;;
26536;SDS011;14204;51.262;5.488;2023-10-19T03:54:42;9.00;;;2.72;;
26536;SDS011;14204;51.262;5.488;2023-10-19T03:57:12;10.48;;;3.40;;
26536;SDS011;14204;51.262;5.488;2023-10-19T03:59:44;10.52;;;2.92;;
26536;SDS011;14204;51.262;5.488;2023-10-19T04:02:12;11.13;;;3.30;;
26536;SDS011;14204;51.262;5.488;2023-10-19T04:04:39;7.03;;;2.90;;
26536;SDS011;14204;51.262;5.488;2023-10-19T04:07:08;8.45;;;2.95;;
26536;SDS011;14204;51.262;5.488;2023-10-19T04:09:47;10.20;;;3.47;;
26536;SDS011;14204;51.262;5.488;2023-10-19T04:15:00;9.95;;;2.85;;
26536;SDS011;14204;51.262;5.488;2023-10-19T04:17:44;9.40;;;2.92;;
26536;SDS011;14204;51.262;5.488;2023-10-19T04:20:11;9.45;;;3.28;;
26536;SDS011;14204;51.262;5.488;2023-10-19T04:22:44;11.35;;;3.00;;
26536;SDS011;14204;51.262;5.488;2023-10-19T04:25:10;8.75;;;2.67;;
26536;SDS011;14204;51.262;5.488;2023-10-19T04:27:42;10.10;;;2.78;;
26536;SDS011;14204;51.262;5.488;2023-10-19T04:30:14;13.85;;;3.10;;
26536;SDS011;14204;51.262;5.488;2023-10-19T04:32:52;17.08;;;3.55;;
26536;SDS011;14204;51.262;5.488;2023-10-19T04:35:20;8.88;;;3.05;;
26536;SDS011;14204;51.262;5.488;2023-10-19T04:37:53;10.45;;;3.00;;
26536;SDS011;14204;51.262;5.488;2023-10-19T04:40:19;11.35;;;3.50;;
26536;SDS011;14204;51.262;5.488;2023-10-19T04:42:46;9.85;;;3.33;;
26536;SDS011;14204;51.262;5.488;2023-10-19T04:45:13;11.98;;;3.17;;
26536;SDS011;14204;51.262;5.488;2023-10-19T04:47:39;14.10;;;3.88;;
26536;SDS011;14204;51.262;5.488;2023-10-19T04:50:05;11.65;;;3.80;;
26536;SDS011;14204;51.262;5.488;2023-10-19T04:52:32;6.25;;;2.95;;
26536;SDS011;14204;51.262;5.488;2023-10-19T04:54:59;7.88;;;3.00;;
26536;SDS011;14204;51.262;5.488;2023-10-19T04:57:26;9.15;;;3.25;;
26536;SDS011;14204;51.262;5.488;2023-10-19T04:59:52;10.30;;;3.30;;
26536;SDS011;14204;51.262;5.488;2023-10-19T05:02:18;9.95;;;3.10;;
26536;SDS011;14204;51.262;5.488;2023-10-19T05:04:43;8.35;;;3.38;;
26536;SDS011;14204;51.262;5.488;2023-10-19T05:07:10;10.95;;;3.75;;
26536;SDS011;14204;51.262;5.488;2023-10-19T05:09:42;12.18;;;3.42;;
26536;SDS011;14204;51.262;5.488;2023-10-19T05:12:09;14.23;;;4.18;;
26536;SDS011;14204;51.262;5.488;2023-10-19T05:14:36;18.02;;;3.42;;
26536;SDS011;14204;51.262;5.488;2023-10-19T05:17:02;9.88;;;3.72;;
26536;SDS011;14204;51.262;5.488;2023-10-19T05:19:32;14.50;;;3.60;;
26536;SDS011;14204;51.262;5.488;2023-10-19T05:22:01;18.40;;;4.25;;
26536;SDS011;14204;51.262;5.488;2023-10-19T05:24:34;11.63;;;4.28;;
26536;SDS011;14204;51.262;5.488;2023-10-19T05:27:00;15.27;;;4.10;;
26536;SDS011;14204;51.262;5.488;2023-10-19T05:29:26;18.63;;;4.03;;
26536;SDS011;14204;51.262;5.488;2023-10-19T05:31:53;14.23;;;4.40;;
26536;SDS011;14204;51.262;5.488;2023-10-19T05:34:22;19.05;;;4.20;;
26536;SDS011;14204;51.262;5.488;2023-10-19T05:36:49;14.77;;;3.28;;
26536;SDS011;14204;51.262;5.488;2023-10-19T05:39:15;13.32;;;3.55;;
26536;SDS011;14204;51.262;5.488;2023-10-19T05:41:41;8.93;;;3.67;;
26536;SDS011;14204;51.262;5.488;2023-10-19T05:44:07;15.63;;;3.53;;
26536;SDS011;14204;51.262;5.488;2023-10-19T05:46:33;11.38;;;4.47;;
26536;SDS011;14204;51.262;5.488;2023-10-19T05:48:59;14.57;;;3.90;;
26536;SDS011;14204;51.262;5.488;2023-10-19T05:51:26;13.18;;;3.90;;
26536;SDS011;14204;51.262;5.488;2023-10-19T05:53:52;14.95;;;4.15;;
26536;SDS011;14204;51.262;5.488;2023-10-19T05:56:19;12.32;;;4.30;;
26536;SDS011;14204;51.262;5.488;2023-10-19T05:58:46;16.33;;;4.20;;
26536;SDS011;14204;51.262;5.488;2023-10-19T06:01:16;14.38;;;4.03;;
26536;SDS011;14204;51.262;5.488;2023-10-19T06:03:43;8.52;;;4.10;;
26536;SDS011;14204;51.262;5.488;2023-10-19T06:06:08;14.27;;;4.38;;
26536;SDS011;14204;51.262;5.488;2023-10-19T06:08:34;12.98;;;3.80;;
26536;SDS011;14204;51.262;5.488;2023-10-19T06:11:01;14.98;;;3.92;;
26536;SDS011;14204;51.262;5.488;2023-10-19T06:13:27;21.45;;;5.32;;
26536;SDS011;14204;51.262;5.488;2023-10-19T06:15:54;13.90;;;4.63;;
26536;SDS011;14204;51.262;5.488;2023-10-19T06:18:20;19.38;;;4.15;;
26536;SDS011;14204;51.262;5.488;2023-10-19T06:20:46;19.23;;;5.80;;
26536;SDS011;14204;51.262;5.488;2023-10-19T06:23:13;16.95;;;5.70;;
26536;SDS011;14204;51.262;5.488;2023-10-19T06:25:39;9.93;;;5.45;;
26536;SDS011;14204;51.262;5.488;2023-10-19T06:28:08;19.08;;;4.20;;
26536;SDS011;14204;51.262;5.488;2023-10-19T06:30:34;12.35;;;4.57;;
26536;SDS011;14204;51.262;5.488;2023-10-19T06:33:00;18.38;;;4.55;;
26536;SDS011;14204;51.262;5.488;2023-10-19T06:35:26;17.27;;;5.32;;
26536;SDS011;14204;51.262;5.488;2023-10-19T06:37:54;13.88;;;4.22;;
26536;SDS011;14204;51.262;5.488;2023-10-19T06:40:22;12.23;;;4.93;;
26536;SDS011;14204;51.262;5.488;2023-10-19T06:42:48;10.95;;;4.22;;
26536;SDS011;14204;51.262;5.488;2023-10-19T06:45:17;15.50;;;4.38;;
26536;SDS011;14204;51.262;5.488;2023-10-19T06:47:44;20.98;;;4.20;;
26536;SDS011;14204;51.262;5.488;2023-10-19T06:50:13;12.98;;;3.45;;
26536;SDS011;14204;51.262;5.488;2023-10-19T06:52:44;15.20;;;3.67;;
26536;SDS011;14204;51.262;5.488;2023-10-19T06:55:11;14.40;;;3.75;;
26536;SDS011;14204;51.262;5.488;2023-10-19T06:57:51;14.38;;;3.80;;
26536;SDS011;14204;51.262;5.488;2023-10-19T07:00:20;18.20;;;4.20;;
26536;SDS011;14204;51.262;5.488;2023-10-19T07:02:47;15.23;;;3.90;;
26536;SDS011;14204;51.262;5.488;2023-10-19T07:05:16;14.80;;;4.07;;
26536;SDS011;14204;51.262;5.488;2023-10-19T07:07:55;13.13;;;4.13;;
26536;SDS011;14204;51.262;5.488;2023-10-19T07:10:22;12.25;;;3.65;;
26536;SDS011;14204;51.262;5.488;2023-10-19T07:12:52;14.23;;;4.57;;
26536;SDS011;14204;51.262;5.488;2023-10-19T07:15:19;14.07;;;3.88;;
26536;SDS011;14204;51.262;5.488;2023-10-19T07:17:47;13.57;;;4.30;;
26536;SDS011;14204;51.262;5.488;2023-10-19T07:20:14;18.10;;;4.35;;
26536;SDS011;14204;51.262;5.488;2023-10-19T07:22:52;19.00;;;4.30;;
26536;SDS011;14204;51.262;5.488;2023-10-19T07:25:18;11.88;;;4.50;;
26536;SDS011;14204;51.262;5.488;2023-10-19T07:27:47;14.13;;;4.13;;
26536;SDS011;14204;51.262;5.488;2023-10-19T07:30:13;20.42;;;4.45;;
26536;SDS011;14204;51.262;5.488;2023-10-19T07:32:40;13.30;;;4.50;;
26536;SDS011;14204;51.262;5.488;2023-10-19T07:35:06;9.75;;;3.95;;
26536;SDS011;14204;51.262;5.488;2023-10-19T07:37:32;13.85;;;4.20;;
26536;SDS011;14204;51.262;5.488;2023-10-19T07:39:58;11.88;;;3.67;;
26536;SDS011;14204;51.262;5.488;2023-10-19T07:42:24;14.85;;;3.90;;
26536;SDS011;14204;51.262;5.488;2023-10-19T07:44:50;12.10;;;4.13;;
26536;SDS011;14204;51.262;5.488;2023-10-19T07:47:16;11.60;;;3.55;;
26536;SDS011;14204;51.262;5.488;2023-10-19T07:49:42;11.38;;;4.20;;
26536;SDS011;14204;51.262;5.488;2023-10-19T07:52:08;10.18;;;3.95;;
26536;SDS011;14204;51.262;5.488;2023-10-19T07:54:39;12.20;;;3.40;;
26536;SDS011;14204;51.262;5.488;2023-10-19T07:57:05;8.13;;;3.20;;
26536;SDS011;14204;51.262;5.488;2023-10-19T07:59:34;14.25;;;3.80;;
26536;SDS011;14204;51.262;5.488;2023-10-19T08:02:00;17.48;;;3.22;;
26536;SDS011;14204;51.262;5.488;2023-10-19T08:04:29;13.00;;;3.50;;
26536;SDS011;14204;51.262;5.488;2023-10-19T08:06:56;13.00;;;3.83;;
26536;SDS011;14204;51.262;5.488;2023-10-19T08:09:25;13.43;;;3.67;;
26536;SDS011;14204;51.262;5.488;2023-10-19T08:11:57;14.93;;;2.90;;
26536;SDS011;14204;51.262;5.488;2023-10-19T08:14:26;9.80;;;2.58;;
26536;SDS011;14204;51.262;5.488;2023-10-19T08:16:52;13.60;;;2.85;;
26536;SDS011;14204;51.262;5.488;2023-10-19T08:19:18;10.35;;;2.80;;
26536;SDS011;14204;51.262;5.488;2023-10-19T08:21:45;12.48;;;3.58;;
26536;SDS011;14204;51.262;5.488;2023-10-19T08:24:12;9.65;;;2.90;;
26536;SDS011;14204;51.262;5.488;2023-10-19T08:26:43;13.98;;;2.70;;
26536;SDS011;14204;51.262;5.488;2023-10-19T08:29:10;10.43;;;3.10;;
26536;SDS011;14204;51.262;5.488;2023-10-19T08:31:39;6.47;;;2.80;;
26536;SDS011;14204;51.262;5.488;2023-10-19T08:34:06;8.15;;;2.50;;
26536;SDS011;14204;51.262;5.488;2023-10-19T08:36:34;9.07;;;2.45;;
26536;SDS011;14204;51.262;5.488;2023-10-19T08:39:03;7.95;;;2.70;;
26536;SDS011;14204;51.262;5.488;2023-10-19T08:41:32;16.65;;;2.63;;
26536;SDS011;14204;51.262;5.488;2023-10-19T08:44:02;9.43;;;2.30;;
26536;SDS011;14204;51.262;5.488;2023-10-19T08:46:42;8.30;;;2.33;;
26536;SDS011;14204;51.262;5.488;2023-10-19T08:49:12;10.77;;;2.75;;
26536;SDS011;14204;51.262;5.488;2023-10-19T08:51:38;13.57;;;3.10;;
26536;SDS011;14204;51.262;5.488;2023-10-19T08:54:07;8.25;;;2.75;;
26536;SDS011;14204;51.262;5.488;2023-10-19T08:56:36;12.73;;;2.72;;
26536;SDS011;14204;51.262;5.488;2023-10-19T08:59:02;9.82;;;2.55;;
26536;SDS011;14204;51.262;5.488;2023-10-19T09:01:28;12.65;;;3.30;;
26536;SDS011;14204;51.262;5.488;2023-10-19T09:03:57;10.27;;;2.38;;
26536;SDS011;14204;51.262;5.488;2023-10-19T09:06:23;18.35;;;3.28;;
26536;SDS011;14204;51.262;5.488;2023-10-19T09:08:50;10.35;;;2.78;;
26536;SDS011;14204;51.262;5.488;2023-10-19T09:11:16;10.10;;;2.70;;
26536;SDS011;14204;51.262;5.488;2023-10-19T09:16:18;12.27;;;2.35;;
26536;SDS011;14204;51.262;5.488;2023-10-19T09:18:45;13.85;;;2.90;;
26536;SDS011;14204;51.262;5.488;2023-10-19T09:21:15;14.43;;;3.00;;
26536;SDS011;14204;51.262;5.488;2023-10-19T09:23:51;15.90;;;2.90;;
26536;SDS011;14204;51.262;5.488;2023-10-19T09:26:18;16.30;;;2.97;;
26536;SDS011;14204;51.262;5.488;2023-10-19T09:28:48;9.77;;;2.53;;
26536;SDS011;14204;51.262;5.488;2023-10-19T09:31:15;14.25;;;2.90;;
26536;SDS011;14204;51.262;5.488;2023-10-19T09:33:42;14.35;;;2.90;;
26536;SDS011;14204;51.262;5.488;2023-10-19T09:36:13;14.85;;;3.28;;
26536;SDS011;14204;51.262;5.488;2023-10-19T09:38:39;11.05;;;2.40;;
26536;SDS011;14204;51.262;5.488;2023-10-19T09:41:20;13.93;;;3.00;;
26536;SDS011;14204;51.262;5.488;2023-10-19T09:43:57;14.68;;;2.92;;
26536;SDS011;14204;51.262;5.488;2023-10-19T09:46:31;17.30;;;2.88;;
26536;SDS011;14204;51.262;5.488;2023-10-19T09:48:58;13.90;;;3.53;;
26536;SDS011;14204;51.262;5.488;2023-10-19T09:51:24;15.68;;;2.88;;
26536;SDS011;14204;51.262;5.488;2023-10-19T09:56:26;16.88;;;3.58;;
26536;SDS011;14204;51.262;5.488;2023-10-19T09:59:05;8.82;;;2.20;;
26536;SDS011;14204;51.262;5.488;2023-10-19T10:02:15;12.80;;;3.38;;
26536;SDS011;14204;51.262;5.488;2023-10-19T10:04:37;15.40;;;3.45;;
26536;SDS011;14204;51.262;5.488;2023-10-19T10:07:05;13.88;;;2.97;;
26536;SDS011;14204;51.262;5.488;2023-10-19T10:09:36;10.43;;;2.47;;
26536;SDS011;14204;51.262;5.488;2023-10-19T10:12:25;11.45;;;2.55;;
26536;SDS011;14204;51.262;5.488;2023-10-19T10:14:59;20.63;;;3.45;;
26536;SDS011;14204;51.262;5.488;2023-10-19T10:17:27;15.82;;;2.83;;
26536;SDS011;14204;51.262;5.488;2023-10-19T10:19:54;13.10;;;3.30;;
26536;SDS011;14204;51.262;5.488;2023-10-19T10:22:38;11.45;;;2.58;;
26536;SDS011;14204;51.262;5.488;2023-10-19T10:25:06;16.15;;;3.58;;
26536;SDS011;14204;51.262;5.488;2023-10-19T10:27:35;13.07;;;3.10;;
26536;SDS011;14204;51.262;5.488;2023-10-19T10:30:02;21.05;;;3.45;;
26536;SDS011;14204;51.262;5.488;2023-10-19T10:32:45;19.55;;;3.60;;
26536;SDS011;14204;51.262;5.488;2023-10-19T10:38:06;11.48;;;3.05;;
26536;SDS011;14204;51.262;5.488;2023-10-19T10:40:46;15.77;;;3.17;;
26536;SDS011;14204;51.262;5.488;2023-10-19T10:43:13;11.07;;;2.92;;
26536;SDS011;14204;51.262;5.488;2023-10-19T10:45:39;12.63;;;3.50;;
26536;SDS011;14204;51.262;5.488;2023-10-19T10:48:14;13.02;;;3.13;;
26536;SDS011;14204;51.262;5.488;2023-10-19T10:50:41;11.93;;;2.78;;
26536;SDS011;14204;51.262;5.488;2023-10-19T10:53:07;15.45;;;2.97;;
26536;SDS011;14204;51.262;5.488;2023-10-19T10:55:33;13.57;;;2.75;;
26536;SDS011;14204;51.262;5.488;2023-10-19T10:57:59;13.10;;;2.67;;
26536;SDS011;14204;51.262;5.488;2023-10-19T11:00:25;11.68;;;3.20;;
26536;SDS011;14204;51.262;5.488;2023-10-19T11:03:02;20.02;;;2.78;;
26536;SDS011;14204;51.262;5.488;2023-10-19T11:05:30;13.60;;;2.85;;
26536;SDS011;14204;51.262;5.488;2023-10-19T11:08:13;11.88;;;2.80;;
26536;SDS011;14204;51.262;5.488;2023-10-19T11:10:43;12.40;;;3.28;;
26536;SDS011;14204;51.262;5.488;2023-10-19T11:13:13;13.43;;;3.00;;
26536;SDS011;14204;51.262;5.488;2023-10-19T11:15:50;22.05;;;3.72;;
26536;SDS011;14204;51.262;5.488;2023-10-19T11:18:34;17.65;;;3.28;;
26536;SDS011;14204;51.262;5.488;2023-10-19T11:21:09;12.57;;;3.03;;
26536;SDS011;14204;51.262;5.488;2023-10-19T11:26:21;12.70;;;3.30;;
26536;SDS011;14204;51.262;5.488;2023-10-19T11:28:56;13.45;;;2.80;;
26536;SDS011;14204;51.262;5.488;2023-10-19T11:31:23;13.82;;;3.65;;
26536;SDS011;14204;51.262;5.488;2023-10-19T11:33:52;15.25;;;3.28;;
26536;SDS011;14204;51.262;5.488;2023-10-19T11:36:20;18.38;;;3.50;;
26536;SDS011;14204;51.262;5.488;2023-10-19T11:38:52;13.40;;;3.35;;
26536;SDS011;14204;51.262;5.488;2023-10-19T11:41:18;14.05;;;2.97;;
26536;SDS011;14204;51.262;5.488;2023-10-19T11:43:45;14.40;;;3.13;;
26536;SDS011;14204;51.262;5.488;2023-10-19T11:46:11;15.25;;;3.22;;
26536;SDS011;14204;51.262;5.488;2023-10-19T11:48:38;13.00;;;3.08;;
26536;SDS011;14204;51.262;5.488;2023-10-19T11:51:05;14.75;;;3.20;;
26536;SDS011;14204;51.262;5.488;2023-10-19T11:53:32;15.40;;;2.95;;
26536;SDS011;14204;51.262;5.488;2023-10-19T11:56:09;15.38;;;3.67;;
26536;SDS011;14204;51.262;5.488;2023-10-19T11:58:38;16.25;;;3.60;;
26536;SDS011;14204;51.262;5.488;2023-10-19T12:01:07;15.82;;;3.45;;
26536;SDS011;14204;51.262;5.488;2023-10-19T12:03:40;12.23;;;2.97;;
26536;SDS011;14204;51.262;5.488;2023-10-19T12:06:09;20.33;;;3.72;;
26536;SDS011;14204;51.262;5.488;2023-10-19T12:08:37;11.93;;;3.47;;
26536;SDS011;14204;51.262;5.488;2023-10-19T12:11:04;16.45;;;3.05;;
26536;SDS011;14204;51.262;5.488;2023-10-19T12:13:35;16.13;;;3.65;;
26536;SDS011;14204;51.262;5.488;2023-10-19T12:16:02;15.25;;;3.30;;
26536;SDS011;14204;51.262;5.488;2023-10-19T12:18:29;12.40;;;3.78;;
26536;SDS011;14204;51.262;5.488;2023-10-19T12:20:55;14.35;;;3.58;;
26536;SDS011;14204;51.262;5.488;2023-10-19T12:23:25;21.92;;;3.47;;
26536;SDS011;14204;51.262;5.488;2023-10-19T12:25:51;14.02;;;3.58;;
26536;SDS011;14204;51.262;5.488;2023-10-19T12:28:17;16.63;;;3.53;;
26536;SDS011;14204;51.262;5.488;2023-10-19T12:30:43;13.77;;;3.25;;
26536;SDS011;14204;51.262;5.488;2023-10-19T12:33:10;14.00;;;3.67;;
26536;SDS011;14204;51.262;5.488;2023-10-19T12:35:42;15.77;;;3.78;;
26536;SDS011;14204;51.262;5.488;2023-10-19T12:38:18;14.18;;;3.30;;
26536;SDS011;14204;51.262;5.488;2023-10-19T12:40:45;14.55;;;3.40;;
26536;SDS011;14204;51.262;5.488;2023-10-19T12:43:13;14.70;;;3.40;;
26536;SDS011;14204;51.262;5.488;2023-10-19T12:45:39;17.10;;;4.13;;
26536;SDS011;14204;51.262;5.488;2023-10-19T12:48:06;21.58;;;4.35;;
26536;SDS011;14204;51.262;5.488;2023-10-19T12:50:35;15.27;;;3.67;;
26536;SDS011;14204;51.262;5.488;2023-10-19T12:53:02;11.95;;;3.40;;
26536;SDS011;14204;51.262;5.488;2023-10-19T12:55:28;11.52;;;3.45;;
26536;SDS011;14204;51.262;5.488;2023-10-19T12:57:56;18.77;;;4.28;;
26536;SDS011;14204;51.262;5.488;2023-10-19T13:00:23;20.63;;;4.13;;
26536;SDS011;14204;51.262;5.488;2023-10-19T13:02:49;8.10;;;2.55;;
26536;SDS011;14204;51.262;5.488;2023-10-19T13:05:16;18.73;;;4.15;;
26536;SDS011;14204;51.262;5.488;2023-10-19T13:07:44;12.85;;;3.47;;
26536;SDS011;14204;51.262;5.488;2023-10-19T13:10:10;15.15;;;3.25;;
26536;SDS011;14204;51.262;5.488;2023-10-19T13:12:38;17.17;;;3.65;;
26536;SDS011;14204;51.262;5.488;2023-10-19T13:15:05;17.58;;;4.15;;
26536;SDS011;14204;51.262;5.488;2023-10-19T13:17:38;14.70;;;3.90;;
26536;SDS011;14204;51.262;5.488;2023-10-19T13:20:08;11.57;;;3.20;;
26536;SDS011;14204;51.262;5.488;2023-10-19T13:22:46;12.35;;;3.17;;
26536;SDS011;14204;51.262;5.488;2023-10-19T13:25:12;17.90;;;3.45;;
26536;SDS011;14204;51.262;5.488;2023-10-19T13:27:38;13.52;;;3.55;;
26536;SDS011;14204;51.262;5.488;2023-10-19T13:30:07;10.85;;;3.03;;
26536;SDS011;14204;51.262;5.488;2023-10-19T13:32:36;13.05;;;4.00;;
26536;SDS011;14204;51.262;5.488;2023-10-19T13:35:02;13.68;;;3.60;;
26536;SDS011;14204;51.262;5.488;2023-10-19T13:37:29;10.18;;;4.03;;
26536;SDS011;14204;51.262;5.488;2023-10-19T13:39:55;9.45;;;3.50;;
26536;SDS011;14204;51.262;5.488;2023-10-19T13:42:21;15.35;;;3.88;;
26536;SDS011;14204;51.262;5.488;2023-10-19T13:44:49;9.35;;;3.55;;
26536;SDS011;14204;51.262;5.488;2023-10-19T13:47:15;13.73;;;3.92;;
26536;SDS011;14204;51.262;5.488;2023-10-19T13:49:41;14.35;;;3.55;;
26536;SDS011;14204;51.262;5.488;2023-10-19T13:52:07;14.60;;;3.60;;
26536;SDS011;14204;51.262;5.488;2023-10-19T13:54:36;17.52;;;4.40;;
26536;SDS011;14204;51.262;5.488;2023-10-19T13:57:02;12.35;;;3.97;;
26536;SDS011;14204;51.262;5.488;2023-10-19T13:59:28;14.77;;;4.32;;
26536;SDS011;14204;51.262;5.488;2023-10-19T14:01:54;11.98;;;3.55;;
26536;SDS011;14204;51.262;5.488;2023-10-19T14:04:20;8.55;;;3.33;;
26536;SDS011;14204;51.262;5.488;2023-10-19T14:06:46;8.75;;;4.15;;
26536;SDS011;14204;51.262;5.488;2023-10-19T14:09:15;11.18;;;3.67;;
26536;SDS011;14204;51.262;5.488;2023-10-19T14:11:42;14.93;;;4.13;;
26536;SDS011;14204;51.262;5.488;2023-10-19T14:14:09;9.23;;;3.55;;
26536;SDS011;14204;51.262;5.488;2023-10-19T14:16:36;11.43;;;3.17;;
26536;SDS011;14204;51.262;5.488;2023-10-19T14:19:02;6.97;;;2.95;;
26536;SDS011;14204;51.262;5.488;2023-10-19T14:21:29;8.32;;;3.25;;
26536;SDS011;14204;51.262;5.488;2023-10-19T14:23:55;11.73;;;3.80;;
26536;SDS011;14204;51.262;5.488;2023-10-19T14:26:21;19.75;;;4.18;;
26536;SDS011;14204;51.262;5.488;2023-10-19T14:28:47;15.27;;;4.13;;
26536;SDS011;14204;51.262;5.488;2023-10-19T14:31:13;7.68;;;3.58;;
26536;SDS011;14204;51.262;5.488;2023-10-19T14:33:39;11.27;;;3.85;;
26536;SDS011;14204;51.262;5.488;2023-10-19T14:36:05;13.65;;;3.80;;
26536;SDS011;14204;51.262;5.488;2023-10-19T14:38:31;13.75;;;3.85;;
26536;SDS011;14204;51.262;5.488;2023-10-19T14:40:57;10.88;;;3.50;;
26536;SDS011;14204;51.262;5.488;2023-10-19T14:43:23;10.30;;;3.58;;
26536;SDS011;14204;51.262;5.488;2023-10-19T14:45:50;8.27;;;3.00;;
26536;SDS011;14204;51.262;5.488;2023-10-19T14:48:16;7.20;;;2.92;;
26536;SDS011;14204;51.262;5.488;2023-10-19T14:50:44;9.05;;;2.70;;
26536;SDS011;14204;51.262;5.488;2023-10-19T14:53:10;7.15;;;2.65;;
26536;SDS011;14204;51.262;5.488;2023-10-19T14:55:37;10.50;;;3.03;;
26536;SDS011;14204;51.262;5.488;2023-10-19T14:58:03;10.05;;;3.40;;
26536;SDS011;14204;51.262;5.488;2023-10-19T15:00:31;10.38;;;2.80;;
26536;SDS011;14204;51.262;5.488;2023-10-19T15:03:02;8.48;;;2.88;;
26536;SDS011;14204;51.262;5.488;2023-10-19T15:05:35;8.43;;;3.55;;
26536;SDS011;14204;51.262;5.488;2023-10-19T15:08:02;12.25;;;3.45;;
26536;SDS011;14204;51.262;5.488;2023-10-19T15:10:30;13.27;;;3.22;;